Terminal Aerodrome Forecast
Issued by NWS

Home | Current Version | Previous Version | Text Only | Print | Product List | Glossary On
Versions: 1 2 3 4 5 6 7 8 9 10 11 12 13 14
000
FTUS41 KCAR 010543
TAFPQI
TAF
KPQI 010543Z 0106/0206 03007KT P6SM OVC040
     FM012100 02010KT 6SM -RASN OVC025
     FM020100 02015G22KT 2SM -SN BR OVC015
     FM020400 01016G23KT 3/4SM -SN BR OVC015
      AMD LTD TO CLD VIS AND WIND=

USA.gov is the U.S. government's official web portal to all federal, state and local government web resources and services.